Flight Track Log - Related Links

Times and Time Zones

All times are in EDT time to prevent confusion due to time zone crossing. See the N9029X flight status page for this flight to view local times or setup timezone preferences in your user account.

Time Position Orientation Groundspeed Altitude Reporting Facility
EDT Latitude Longitude Course Direction KTS MPH feet Rate Location/Type
Thu 09:31:00 AM 40.4481 -81.0960 285° West  Level Estimated
Thu 09:32:00 AM 40.4566 -81.1416 284° West  Level Estimated
Thu 09:33:00 AM 40.4650 -81.1872 284° West  Level Estimated
Thu 09:34:00 AM 40.4735 -81.2329 284° West  Level Estimated
Thu 09:35:00 AM 40.4819 -81.2785 284° West  Level Estimated
Thu 09:36:00 AM 40.4904 -81.3242 284° West  Level Estimated
Thu 09:37:00 AM 40.4988 -81.3699 284° West  Level Estimated
Thu 09:38:00 AM 40.5072 -81.4156 284° West  Level Estimated
Thu 09:39:00 AM 40.5155 -81.4613 284° West  Level Estimated
Thu 09:40:00 AM 40.5239 -81.5070 284° West  Level Estimated
Thu 09:41:00 AM 40.5322 -81.5527 284° West  Level Estimated
Thu 09:42:00 AM 40.5406 -81.5984 283° West  Level Estimated
Thu 09:43:00 AM 40.5489 -81.6441 283° West  Level Estimated
Thu 09:43:55 AM 40.3811 -80.9028 283° West 126 145 6,400  Level Indianapolis Center
Thu 09:44:00 AM 40.5571 -81.6899 283° West  Level Estimated
Thu 09:44:57 AM 40.3886 -80.9478 282° West 125 144 6,400  Level Indianapolis Center
Thu 09:45:00 AM 40.5654 -81.7357 283° West  Level Estimated
Thu 09:45:59 AM 40.3958 -80.9908 282° West 122 140 6,500  Level Indianapolis Center
Thu 09:46:00 AM 40.5736 -81.7814 283° West  Level Estimated
Thu 09:47:00 AM 40.5819 -81.8272 283° West  Level Estimated
Thu 09:47:01 AM 40.4053 -81.0414 284° West 121 139 6,500  Level Indianapolis Center
Thu 09:48:00 AM 40.5901 -81.8730 283° West  Level Estimated
Thu 09:48:03 AM 40.4128 -81.0867 282° West 124 143 6,400  Level Indianapolis Center
Thu 09:49:00 AM 40.5983 -81.9188 283° West  Level Estimated
Thu 09:49:05 AM 40.4222 -81.1311 286° West 125 144 6,400  Level Indianapolis Center
Thu 09:50:07 AM 40.4347 -81.1736 291° West 123 142 6,400  Level Indianapolis Center
Thu 09:51:09 AM 40.4447 -81.2144 288° West 120 138 6,400 48 Level Indianapolis Center
Thu 09:52:11 AM 40.4528 -81.2583 284° West 120 138 6,500 97 Climbing Indianapolis Center
Thu 09:53:13 AM 40.4603 -81.3058 282° West 126 145 6,600 48 Climbing Indianapolis Center
Thu 09:54:15 AM 40.4700 -81.3469 287° West 122 140 6,600 -48 Level Indianapolis Center
Thu 09:55:18 AM 40.4786 -81.3975 283° West 121 139 6,500 -48 Descending Indianapolis Center
Thu 09:56:20 AM 40.4861 -81.4394 283° West 118 136 6,500 48 Level Indianapolis Center
Thu 09:57:22 AM 40.4939 -81.4817 284° West 116 133 6,600  Climbing Indianapolis Center
Thu 09:58:24 AM 40.4994 -81.5264 279° West 121 139 6,500 -97 Descending Indianapolis Center
Thu 09:59:26 AM 40.5069 -81.5717 282° West 124 143 6,400  Descending Indianapolis Center
Thu 10:00:28 AM 40.5136 -81.6156 281° West 123 142 6,500 97 Climbing Indianapolis Center
Thu 10:02:00 AM 40.5366 -81.6810 295° West  Level FlightAware Approximate
Thu 10:09:00 AM 40.6026 -81.9997 287° West  Level FlightAware Approximate
Thu 10:10:00 AM 40.6130 -82.0448 287° West  Level FlightAware Approximate
Thu 10:11:00 AM 40.6233 -82.0898 287° West  Level FlightAware Approximate
Thu 10:12:00 AM 40.6336 -82.1349 283° West  Level FlightAware Approximate
Thu 10:13:00 AM 40.6413 -82.1809 283° West  Level FlightAware Approximate
Thu 10:14:00 AM 40.6491 -82.2269 282° West  Level FlightAware Approximate
Thu 10:15:00 AM 40.6568 -82.2729 282° West  Level FlightAware Approximate
Thu 10:16:00 AM 40.6644 -82.3189 282° West  Level FlightAware Approximate
Thu 10:17:00 AM 40.6721 -82.3649 282° West  Level FlightAware Approximate
Thu 10:18:00 AM 40.6798 -82.4109 282° West  Level FlightAware Approximate
Thu 10:19:00 AM 40.6874 -82.4570 282° West  Level FlightAware Approximate
Thu 10:20:00 AM 40.6950 -82.5030 282° West  Level FlightAware Approximate

Login

Don't have an account? Register now (free) for customized features, flight alerts, and more!